Time;durP1;ratioP1;P1;durP2;ratioP2;P2;SDS_P1;SDS_P2;PMS_P1;PMS_P2;Temp;Humidity;BMP_temperature;BMP_pressure;BME280_temperature;BME280_humidity;BME280_pressure;Samples;Min_cycle;Max_cycle;Signal;HPM_P1;HPM_P2
2023/02/12 00:01:45;;;;;;;22.23;17.70;;;12.40;50.50;;;;;;5033161;28;20491;-52
2023/02/12 00:04:15;;;;;;;22.87;18.60;;;12.30;50.30;;;;;;5021683;28;20448;-51
2023/02/12 00:06:43;;;;;;;25.73;19.33;;;12.40;50.30;;;;;;5023252;28;20209;-52
2023/02/12 00:09:14;;;;;;;24.37;19.03;;;12.40;50.30;;;;;;5029111;28;20535;-49
2023/02/12 00:11:44;;;;;;;23.50;19.00;;;12.40;50.20;;;;;;5025021;28;20491;-53
2023/02/12 00:14:12;;;;;;;24.50;19.00;;;12.40;50.40;;;;;;5024763;28;20444;-50
2023/02/12 00:16:43;;;;;;;23.87;17.67;;;12.40;50.50;;;;;;5027210;28;20955;-53
2023/02/12 00:19:15;;;;;;;24.67;18.63;;;12.30;50.60;;;;;;5020907;28;20458;-52
2023/02/12 00:21:43;;;;;;;23.10;18.13;;;12.30;50.60;;;;;;5028634;28;20500;-54
2023/02/12 00:24:18;;;;;;;24.37;17.93;;;12.30;50.60;;;;;;5024974;28;20452;-50
2023/02/12 00:26:47;;;;;;;23.43;19.27;;;12.30;50.80;;;;;;5030440;28;20493;-51
2023/02/12 00:29:16;;;;;;;22.20;19.10;;;12.40;50.70;;;;;;5006682;28;20481;-51
2023/02/12 00:31:41;;;;;;;26.43;19.50;;;12.40;50.70;;;;;;5027850;28;20447;-50
2023/02/12 00:34:15;;;;;;;28.77;21.20;;;12.30;50.80;;;;;;5028954;28;20490;-50
2023/02/12 00:36:43;;;;;;;28.27;21.43;;;12.30;50.80;;;;;;5029537;28;20200;-50
2023/02/12 00:39:14;;;;;;;24.90;20.07;;;12.30;50.70;;;;;;5029559;28;20555;-51
2023/02/12 00:41:43;;;;;;;26.20;20.20;;;12.30;50.90;;;;;;5031869;28;20490;-52
2023/02/12 00:44:08;;;;;;;27.53;21.47;;;12.30;51.00;;;;;;5032718;28;20432;-53
2023/02/12 00:46:34;;;;;;;27.10;20.33;;;12.30;51.00;;;;;;5032376;28;20998;-52
2023/02/12 00:48:59;;;;;;;29.40;20.83;;;12.30;51.10;;;;;;5027243;28;20193;-50
2023/02/12 00:51:25;;;;;;;30.53;21.50;;;12.30;51.10;;;;;;5015397;28;20208;-50
2023/02/12 00:53:50;;;;;;;27.23;20.50;;;12.40;51.10;;;;;;5025632;28;20623;-52
2023/02/12 00:56:16;;;;;;;28.60;21.37;;;12.40;50.90;;;;;;5020178;28;20189;-50
2023/02/12 00:58:42;;;;;;;33.70;21.37;;;12.40;50.90;;;;;;5019197;28;20312;-49
2023/02/12 01:01:07;;;;;;;28.37;21.67;;;12.40;51.00;;;;;;5026949;28;20220;-50
2023/02/12 01:03:33;;;;;;;28.10;23.27;;;12.40;51.10;;;;;;5020267;28;20269;-50
2023/02/12 01:05:59;;;;;;;29.47;20.70;;;12.40;51.10;;;;;;5026611;28;20208;-50
2023/02/12 01:08:29;;;;;;;31.33;21.47;;;12.40;51.10;;;;;;5027663;28;20198;-50
2023/02/12 01:11:02;;;;;;;28.53;21.53;;;12.30;51.10;;;;;;5024818;28;20596;-54
2023/02/12 01:13:35;;;;;;;31.83;22.30;;;12.30;51.30;;;;;;5030080;28;20440;-50
2023/02/12 01:16:22;;;;;;;31.03;22.87;;;12.20;51.40;;;;;;5024504;28;20453;-53
2023/02/12 01:18:51;;;;;;;28.33;22.10;;;12.20;51.40;;;;;;5031438;28;20831;-51
2023/02/12 01:21:29;;;;;;;30.80;21.40;;;12.20;51.60;;;;;;5032898;28;20583;-50
2023/02/12 01:23:55;;;;;;;31.80;23.13;;;12.20;51.60;;;;;;5019623;28;20440;-50
2023/02/12 01:26:21;;;;;;;30.03;21.23;;;12.30;51.60;;;;;;5026600;28;20517;-52
2023/02/12 01:29:00;;;;;;;27.60;21.70;;;12.20;51.50;;;;;;5028886;28;20560;-52
2023/02/12 01:31:28;;;;;;;30.50;21.63;;;12.20;51.60;;;;;;5029295;28;20454;-50
2023/02/12 01:33:56;;;;;;;27.07;20.73;;;12.00;51.70;;;;;;5028859;28;20483;-51
2023/02/12 01:36:22;;;;;;;26.87;22.57;;;12.00;51.70;;;;;;5028319;28;20440;-50
2023/02/12 01:38:48;;;;;;;23.60;21.07;;;12.00;51.80;;;;;;5026824;28;20452;-50
2023/02/12 01:41:20;;;;;;;26.23;20.70;;;12.00;51.70;;;;;;5030337;28;20545;-50
2023/02/12 01:44:04;;;;;;;30.60;21.70;;;12.10;51.70;;;;;;5027405;28;20208;-51
2023/02/12 01:46:29;;;;;;;28.20;22.07;;;12.10;51.70;;;;;;5032046;28;20525;-50
2023/02/12 01:48:55;;;;;;;33.07;22.70;;;12.00;51.50;;;;;;5026300;28;20468;-49
2023/02/12 01:51:23;;;;;;;30.67;22.03;;;11.80;52.20;;;;;;5022261;28;20201;-51
2023/02/12 01:53:52;;;;;;;28.70;21.60;;;11.70;52.40;;;;;;5027301;28;20193;-50
2023/02/12 01:56:18;;;;;;;26.60;20.60;;;11.60;52.60;;;;;;5026978;28;20948;-52
2023/02/12 01:58:46;;;;;;;25.40;20.13;;;11.80;52.60;;;;;;5024734;28;20455;-50
2023/02/12 02:01:20;;;;;;;26.50;21.83;;;11.80;52.30;;;;;;5024449;28;20468;-51
2023/02/12 02:03:49;;;;;;;26.87;20.53;;;11.90;52.10;;;;;;5027026;28;20439;-50
2023/02/12 02:06:23;;;;;;;26.00;19.40;;;11.90;51.90;;;;;;5023473;28;20903;-52
2023/02/12 02:08:49;;;;;;;26.47;21.23;;;11.90;51.90;;;;;;5023489;28;20500;-50
2023/02/12 02:17:07;;;;;;;28.37;20.90;;;12.00;51.60;;;;;;5025017;28;20493;-52
2023/02/12 02:19:45;;;;;;;24.77;19.83;;;12.00;51.70;;;;;;4980735;28;20447;-50
2023/02/12 02:22:42;;;;;;;28.73;21.13;;;12.00;51.90;;;;;;5023025;28;20582;-50
2023/02/12 02:25:26;;;;;;;29.43;22.73;;;12.00;51.80;;;;;;5025503;28;20458;-50
2023/02/12 02:28:29;;;;;;;28.13;21.57;;;12.00;51.70;;;;;;5019794;28;20443;-49
2023/02/12 02:31:23;;;;;;;25.47;20.93;;;12.00;51.80;;;;;;5028294;28;20451;-53
2023/02/12 02:34:02;;;;;;;31.83;21.80;;;11.90;51.70;;;;;;5022613;28;20483;-53
2023/02/12 02:36:46;;;;;;;25.93;21.50;;;11.90;52.00;;;;;;5026176;28;20459;-53
2023/02/12 02:39:24;;;;;;;28.57;21.97;;;11.90;52.00;;;;;;5028295;28;20455;-51
2023/02/12 02:42:00;;;;;;;25.90;19.67;;;11.90;51.90;;;;;;5023570;28;20499;-53
2023/02/12 02:44:32;;;;;;;28.83;21.73;;;11.80;52.00;;;;;;5025555;28;20468;-52
2023/02/12 02:47:01;;;;;;;27.20;21.93;;;11.70;52.20;;;;;;5029800;28;20455;-53
2023/02/12 02:49:34;;;;;;;26.53;20.93;;;11.60;52.30;;;;;;5027603;28;20439;-51
2023/02/12 02:52:08;;;;;;;25.40;19.83;;;11.60;52.70;;;;;;5022609;28;20573;-51
2023/02/12 02:54:45;;;;;;;28.80;21.47;;;11.60;52.70;;;;;;5024449;28;20451;-53
2023/02/12 02:57:18;;;;;;;24.97;19.70;;;11.60;52.60;;;;;;5025290;28;20437;-53
2023/02/12 02:59:49;;;;;;;29.87;21.77;;;11.70;52.40;;;;;;5026654;28;20432;-54
2023/02/12 03:02:20;;;;;;;25.50;20.40;;;11.30;52.80;;;;;;5014869;28;20656;-54
2023/02/12 03:04:51;;;;;;;22.90;19.43;;;11.30;53.50;;;;;;5020576;28;20444;-53
2023/02/12 03:07:24;;;;;;;30.97;21.60;;;11.40;53.30;;;;;;5022130;28;20439;-52
2023/02/12 03:09:57;;;;;;;28.60;20.30;;;11.60;53.00;;;;;;5020214;28;20931;-53
2023/02/12 03:12:46;;;;;;;27.40;19.83;;;11.70;52.80;;;;;;5024775;28;20455;-50
2023/02/12 03:15:33;;;;;;;26.13;19.07;;;11.70;52.60;;;;;;5023995;28;20494;-53
2023/02/12 03:18:03;;;;;;;24.80;20.37;;;11.60;52.50;;;;;;5022165;28;20440;-53
2023/02/12 03:20:41;;;;;;;24.53;19.90;;;11.60;52.80;;;;;;5020609;28;20436;-53
2023/02/12 03:23:12;;;;;;;26.03;21.20;;;11.40;52.70;;;;;;5028651;28;20491;-53
2023/02/12 03:25:48;;;;;;;24.27;19.17;;;11.40;53.20;;;;;;5025404;28;20459;-50
2023/02/12 03:28:23;;;;;;;26.17;19.43;;;11.40;53.00;;;;;;5020877;28;20435;-53
2023/02/12 03:30:48;;;;;;;27.70;20.43;;;11.50;53.00;;;;;;5016467;28;20554;-50
2023/02/12 03:33:53;;;;;;;23.43;18.60;;;11.40;53.00;;;;;;5026581;28;20448;-50
2023/02/12 03:36:45;;;;;;;23.63;19.23;;;11.50;53.10;;;;;;5011405;28;20223;-50
2023/02/12 03:39:20;;;;;;;25.50;19.17;;;11.40;53.00;;;;;;4991517;28;20501;-52
2023/02/12 03:42:13;;;;;;;22.80;18.17;;;11.40;53.20;;;;;;5031208;28;20993;-49
2023/02/12 03:44:44;;;;;;;25.03;18.43;;;11.20;53.60;;;;;;5022469;28;21171;-51
2023/02/12 03:47:31;;;;;;;22.77;18.53;;;11.10;53.80;;;;;;5025868;28;20432;-50
2023/02/12 03:50:19;;;;;;;24.43;19.03;;;11.10;53.90;;;;;;5028183;28;20428;-51
2023/02/12 03:52:45;;;;;;;23.30;19.20;;;11.10;54.00;;;;;;5030490;28;20459;-49
2023/02/12 03:55:14;;;;;;;28.63;20.47;;;11.00;53.90;;;;;;5027874;28;20451;-51
2023/02/12 03:57:48;;;;;;;26.10;19.03;;;11.10;53.90;;;;;;5027892;28;20482;-52
2023/02/12 04:00:19;;;;;;;25.40;19.50;;;11.20;53.80;;;;;;5011209;28;20433;-51
2023/02/12 04:02:45;;;;;;;25.80;18.73;;;11.20;53.40;;;;;;5012771;28;20492;-50
2023/02/12 04:05:23;;;;;;;24.73;20.00;;;11.20;53.50;;;;;;5022454;28;20474;-50
2023/02/12 04:07:50;;;;;;;25.87;20.40;;;11.10;53.50;;;;;;5031037;28;21001;-50
2023/02/12 04:10:16;;;;;;;25.30;19.50;;;10.90;54.10;;;;;;5029657;28;20795;-50
2023/02/12 04:12:48;;;;;;;24.50;18.43;;;11.10;54.20;;;;;;5031244;28;20535;-50
2023/02/12 04:15:40;;;;;;;28.43;19.93;;;11.00;54.20;;;;;;5024430;28;20513;-50
2023/02/12 04:18:18;;;;;;;27.67;19.13;;;11.10;54.30;;;;;;5024962;28;20452;-49
2023/02/12 04:21:14;;;;;;;31.23;19.83;;;10.90;54.30;;;;;;5020689;28;20976;-51
2023/02/12 04:24:08;;;;;;;25.30;20.17;;;10.80;54.80;;;;;;5024789;28;20464;-50
2023/02/12 04:26:55;;;;;;;25.70;20.30;;;10.90;54.70;;;;;;5018888;28;20460;-49
2023/02/12 04:29:45;;;;;;;25.00;20.57;;;11.10;54.40;;;;;;5023345;28;20567;-49
2023/02/12 04:32:16;;;;;;;24.17;19.73;;;11.10;54.30;;;;;;5022919;28;20470;-51
2023/02/12 04:34:56;;;;;;;22.40;18.90;;;11.20;54.00;;;;;;5022979;28;20524;-51
2023/02/12 04:37:29;;;;;;;24.77;19.13;;;11.30;53.90;;;;;;5022726;28;20439;-49
2023/02/12 04:39:57;;;;;;;23.57;19.20;;;11.20;53.60;;;;;;5026753;28;20451;-50
2023/02/12 04:42:22;;;;;;;28.50;20.43;;;11.20;53.70;;;;;;5019563;28;20893;-50
2023/02/12 04:44:48;;;;;;;26.23;20.30;;;11.10;53.90;;;;;;5021023;28;20455;-50
2023/02/12 04:47:15;;;;;;;26.10;19.53;;;11.10;53.90;;;;;;5021253;28;20649;-52
2023/02/12 04:49:41;;;;;;;29.10;19.53;;;11.20;53.90;;;;;;5032062;28;20288;-49
2023/02/12 04:52:07;;;;;;;23.57;18.80;;;11.20;53.70;;;;;;5025891;28;20522;-50
2023/02/12 04:54:33;;;;;;;30.23;21.10;;;11.20;53.90;;;;;;5020161;28;20446;-49
2023/02/12 04:56:59;;;;;;;28.77;22.30;;;11.20;53.80;;;;;;5023965;28;20995;-50
2023/02/12 04:59:24;;;;;;;27.63;21.23;;;11.20;53.70;;;;;;5023772;28;20193;-50
2023/02/12 05:01:50;;;;;;;29.10;19.90;;;11.40;53.60;;;;;;5017553;28;20225;-52
2023/02/12 05:04:17;;;;;;;29.00;21.33;;;11.30;53.50;;;;;;5028499;28;20207;-50
2023/02/12 05:06:43;;;;;;;29.27;21.37;;;11.30;53.40;;;;;;5020476;28;20897;-50
2023/02/12 05:09:13;;;;;;;24.33;20.30;;;11.30;53.50;;;;;;5027327;28;20526;-51
2023/02/12 05:11:38;;;;;;;26.87;19.47;;;11.20;53.70;;;;;;5024408;28;20518;-53
2023/02/12 05:14:04;;;;;;;26.53;20.53;;;11.30;53.70;;;;;;5026905;28;20447;-50
2023/02/12 05:16:30;;;;;;;25.43;21.47;;;11.20;53.60;;;;;;5017136;28;20213;-50
2023/02/12 05:18:56;;;;;;;28.67;20.57;;;11.20;54.00;;;;;;5025957;28;20204;-50
2023/02/12 05:21:21;;;;;;;28.60;20.30;;;11.20;53.90;;;;;;5024343;28;20248;-51
2023/02/12 05:23:47;;;;;;;27.83;20.80;;;11.30;53.80;;;;;;5012493;28;20189;-53
2023/02/12 05:26:15;;;;;;;28.40;21.50;;;11.40;53.60;;;;;;5025330;28;20259;-51
2023/02/12 05:28:41;;;;;;;27.27;21.27;;;11.40;53.50;;;;;;5026396;28;20738;-50
2023/02/12 05:31:09;;;;;;;27.30;21.97;;;11.30;53.50;;;;;;5029185;28;20444;-53
2023/02/12 05:33:35;;;;;;;26.50;21.70;;;11.10;53.90;;;;;;5030578;28;20204;-49
2023/02/12 05:36:04;;;;;;;26.03;21.07;;;11.00;54.20;;;;;;5027148;28;20998;-50
2023/02/12 05:38:30;;;;;;;29.67;21.77;;;11.00;54.30;;;;;;5027752;28;20300;-50
2023/02/12 05:41:04;;;;;;;28.33;21.33;;;11.10;54.20;;;;;;5025394;28;20554;-53
2023/02/12 05:43:30;;;;;;;30.00;22.27;;;11.10;54.10;;;;;;5030176;28;20185;-50
2023/02/12 05:46:03;;;;;;;28.90;21.73;;;11.20;53.90;;;;;;5022051;28;20451;-50
2023/02/12 05:48:30;;;;;;;25.97;20.40;;;10.90;53.90;;;;;;5024456;28;20951;-52
2023/02/12 05:51:24;;;;;;;27.17;21.33;;;10.80;54.80;;;;;;5025062;28;20456;-52
2023/02/12 05:53:51;;;;;;;27.13;19.47;;;10.90;54.70;;;;;;5021355;28;20459;-50
2023/02/12 05:56:20;;;;;;;27.53;20.90;;;11.00;54.50;;;;;;5028248;28;20440;-51
2023/02/12 05:58:51;;;;;;;30.33;23.00;;;11.00;54.30;;;;;;5020738;28;20452;-51
2023/02/12 06:01:26;;;;;;;29.90;22.27;;;11.10;54.20;;;;;;5022858;28;20874;-50
2023/02/12 06:03:51;;;;;;;28.87;21.97;;;11.10;54.10;;;;;;5019905;28;20993;-49
2023/02/12 06:06:17;;;;;;;25.57;21.53;;;11.10;54.00;;;;;;5021660;28;20444;-52
2023/02/12 06:08:46;;;;;;;29.37;22.83;;;11.10;54.10;;;;;;5023911;28;20205;-51
2023/02/12 06:11:13;;;;;;;32.90;20.43;;;11.10;53.90;;;;;;5022844;28;20198;-50
2023/02/12 06:13:38;;;;;;;28.30;21.87;;;11.20;54.00;;;;;;5024484;28;20885;-52
2023/02/12 06:16:04;;;;;;;31.50;21.83;;;11.00;53.90;;;;;;5025238;28;20436;-54
2023/02/12 06:18:30;;;;;;;25.83;19.97;;;11.00;54.30;;;;;;5019792;28;20203;-50
2023/02/12 06:20:56;;;;;;;25.97;20.47;;;10.90;54.40;;;;;;5020415;28;20519;-50
2023/02/12 06:23:23;;;;;;;26.20;20.93;;;10.90;54.40;;;;;;5026846;28;20229;-51
2023/02/12 06:25:50;;;;;;;25.10;20.20;;;10.80;54.60;;;;;;5024589;28;20194;-50
2023/02/12 06:28:16;;;;;;;21.50;18.07;;;10.90;54.60;;;;;;5022056;28;20433;-50
2023/02/12 06:30:42;;;;;;;26.70;20.07;;;10.90;54.30;;;;;;5019505;28;20875;-50
2023/02/12 06:33:08;;;;;;;17.80;14.80;;;11.00;54.30;;;;;;5023162;28;20491;-50
2023/02/12 06:35:37;;;;;;;25.20;20.20;;;11.00;55.40;;;;;;5020790;28;20444;-52
2023/02/12 06:38:03;;;;;;;27.20;19.43;;;11.30;56.30;;;;;;5019766;28;20225;-52
2023/02/12 06:40:28;;;;;;;26.73;19.70;;;11.60;55.70;;;;;;5021304;28;20495;-50
2023/02/12 06:42:54;;;;;;;25.23;19.27;;;11.80;54.70;;;;;;5028870;28;20251;-54
2023/02/12 06:45:20;;;;;;;23.33;18.53;;;12.00;54.20;;;;;;5021786;28;20243;-52
2023/02/12 06:47:45;;;;;;;25.37;19.20;;;12.10;53.30;;;;;;5024450;28;20556;-50
2023/02/12 06:50:11;;;;;;;30.90;19.50;;;12.00;52.70;;;;;;5021765;28;20205;-53
2023/02/12 06:52:36;;;;;;;27.50;19.17;;;12.10;52.70;;;;;;5025950;28;20440;-53
2023/02/12 06:55:02;;;;;;;23.33;18.73;;;12.20;52.50;;;;;;5020678;28;20220;-53
2023/02/12 06:57:28;;;;;;;22.13;18.80;;;12.20;52.10;;;;;;5030931;28;20189;-54
2023/02/12 06:59:54;;;;;;;25.97;19.83;;;12.40;52.20;;;;;;5031114;28;20232;-51
2023/02/12 07:02:20;;;;;;;26.77;19.97;;;12.50;51.80;;;;;;5022443;28;20567;-51
2023/02/12 07:04:46;;;;;;;25.10;20.37;;;12.60;51.50;;;;;;5027139;28;20194;-50
2023/02/12 07:07:11;;;;;;;24.03;20.50;;;12.60;51.20;;;;;;5030742;28;20950;-52
2023/02/12 07:09:37;;;;;;;20.77;17.77;;;12.70;51.20;;;;;;5027971;28;20268;-51
2023/02/12 07:12:03;;;;;;;23.07;20.37;;;12.80;50.90;;;;;;5027471;28;20194;-52
2023/02/12 07:14:28;;;;;;;21.90;17.53;;;12.90;50.90;;;;;;5027706;28;20197;-51
2023/02/12 07:16:55;;;;;;;26.30;20.77;;;13.00;50.60;;;;;;5029912;28;20967;-51
2023/02/12 07:19:21;;;;;;;23.53;19.60;;;13.10;50.60;;;;;;5025046;28;20201;-50
2023/02/12 07:21:47;;;;;;;26.97;19.77;;;13.10;50.40;;;;;;5018615;28;20568;-54
2023/02/12 07:24:14;;;;;;;23.90;19.70;;;13.10;50.00;;;;;;5026505;28;20464;-54
2023/02/12 07:26:40;;;;;;;23.37;19.80;;;13.20;49.90;;;;;;5029463;28;20832;-50
2023/02/12 07:29:07;;;;;;;20.77;17.37;;;13.20;50.00;;;;;;5020020;28;20475;-52
2023/02/12 07:31:32;;;;;;;23.20;17.80;;;13.30;49.90;;;;;;5019881;28;20453;-52
2023/02/12 07:33:59;;;;;;;23.67;18.20;;;13.30;49.50;;;;;;5025685;28;20459;-51
2023/02/12 07:36:27;;;;;;;24.20;19.77;;;13.40;49.60;;;;;;5029822;28;20194;-54
2023/02/12 07:38:54;;;;;;;21.43;18.70;;;13.40;49.40;;;;;;5020170;28;20456;-52
2023/02/12 07:41:31;;;;;;;25.80;21.20;;;13.40;49.10;;;;;;5018968;28;20472;-56
2023/02/12 07:44:09;;;;;;;24.40;18.50;;;13.50;49.40;;;;;;5026117;28;20456;-53
2023/02/12 07:46:45;;;;;;;27.50;20.83;;;13.60;49.20;;;;;;5022660;28;20447;-52
2023/02/12 07:49:20;;;;;;;25.03;18.50;;;13.60;49.30;;;;;;5027460;28;20448;-49
2023/02/12 07:51:48;;;;;;;23.67;19.47;;;13.70;49.10;;;;;;5022669;28;20950;-50
2023/02/12 07:54:13;;;;;;;27.67;20.20;;;13.80;48.90;;;;;;5022524;28;20555;-52
2023/02/12 07:56:40;;;;;;;27.50;18.13;;;13.90;48.50;;;;;;5022394;28;21515;-53
2023/02/12 07:59:11;;;;;;;25.43;20.23;;;13.90;48.50;;;;;;5006860;28;20193;-55
2023/02/12 08:01:44;;;;;;;25.30;21.40;;;13.70;48.20;;;;;;5025272;28;20483;-50
2023/02/12 08:04:13;;;;;;;25.37;19.70;;;13.40;48.50;;;;;;5020696;28;20443;-50
2023/02/12 08:06:41;;;;;;;26.60;20.27;;;13.00;50.10;;;;;;5019853;28;20518;-50
2023/02/12 08:09:10;;;;;;;23.97;18.67;;;13.10;50.20;;;;;;5024345;28;21006;-52
2023/02/12 08:11:37;;;;;;;27.33;20.07;;;13.30;50.00;;;;;;5022804;28;20457;-56
2023/02/12 08:14:04;;;;;;;26.83;21.17;;;13.40;49.60;;;;;;5020656;28;20440;-51
2023/02/12 08:16:34;;;;;;;24.40;20.13;;;13.50;49.40;;;;;;5024890;28;20436;-53
2023/02/12 08:18:59;;;;;;;25.70;20.63;;;13.60;49.20;;;;;;5028954;28;20469;-51
2023/02/12 08:21:27;;;;;;;26.50;19.50;;;13.70;48.90;;;;;;5022350;28;20492;-54
2023/02/12 08:23:54;;;;;;;24.93;21.37;;;13.70;48.80;;;;;;5025252;28;20274;-53
2023/02/12 08:26:22;;;;;;;26.10;21.43;;;13.80;48.80;;;;;;5026815;28;20458;-49
2023/02/12 08:28:53;;;;;;;28.20;21.63;;;13.60;48.50;;;;;;5024953;28;20475;-50
2023/02/12 08:31:21;;;;;;;30.57;22.90;;;13.30;50.00;;;;;;5025804;28;20451;-50
2023/02/12 08:33:48;;;;;;;29.77;23.90;;;13.40;49.70;;;;;;5027150;28;20451;-52
2023/02/12 08:36:16;;;;;;;27.73;22.47;;;13.60;49.30;;;;;;5029224;28;21545;-49
2023/02/12 08:38:43;;;;;;;34.87;25.13;;;13.60;49.10;;;;;;5017380;28;20456;-49
2023/02/12 08:41:24;;;;;;;31.03;26.30;;;13.70;49.00;;;;;;5026759;28;20444;-52
2023/02/12 08:43:52;;;;;;;32.03;26.00;;;13.80;49.10;;;;;;5024639;28;20448;-49
2023/02/12 08:46:38;;;;;;;31.93;24.40;;;13.80;48.90;;;;;;5024039;28;20443;-49
2023/02/12 08:49:08;;;;;;;30.43;23.97;;;13.80;48.90;;;;;;5020501;28;20495;-50
2023/02/12 08:51:34;;;;;;;27.00;21.60;;;13.80;48.90;;;;;;5026441;28;22572;-51
2023/02/12 08:54:03;;;;;;;30.43;23.60;;;13.80;49.30;;;;;;5023757;28;20533;-49
2023/02/12 08:56:30;;;;;;;36.23;25.37;;;13.80;49.10;;;;;;5024624;28;20502;-50
2023/02/12 08:58:56;;;;;;;28.40;23.80;;;13.90;49.50;;;;;;5028185;28;20458;-52
2023/02/12 09:01:24;;;;;;;33.67;25.43;;;13.90;49.20;;;;;;5024959;28;20585;-48
2023/02/12 09:03:51;;;;;;;30.87;23.50;;;14.00;49.00;;;;;;5029006;28;20476;-52
2023/02/12 09:06:19;;;;;;;30.43;24.33;;;14.00;48.60;;;;;;5023160;28;20439;-51
2023/02/12 09:08:45;;;;;;;28.77;22.60;;;13.80;49.00;;;;;;5028314;28;20947;-52
2023/02/12 09:11:16;;;;;;;32.33;25.97;;;13.80;49.40;;;;;;5025863;28;20448;-48
2023/02/12 09:13:44;;;;;;;27.97;23.53;;;14.00;49.00;;;;;;5030316;28;20482;-51
2023/02/12 09:16:10;;;;;;;32.60;25.27;;;13.90;49.30;;;;;;5021942;28;21129;-50
2023/02/12 09:18:36;;;;;;;33.83;25.70;;;13.90;49.20;;;;;;5025483;28;20447;-51
2023/02/12 09:21:07;;;;;;;31.87;23.10;;;13.90;49.50;;;;;;5028037;28;20435;-49
2023/02/12 09:23:33;;;;;;;31.57;25.00;;;13.90;49.50;;;;;;5025345;28;20456;-49
2023/02/12 09:26:03;;;;;;;35.00;26.77;;;14.10;49.30;;;;;;5004040;28;21006;-49
2023/02/12 09:28:28;;;;;;;37.27;27.27;;;14.30;49.00;;;;;;5032566;28;21013;-52
2023/02/12 09:30:54;;;;;;;31.63;25.53;;;14.40;48.70;;;;;;5032711;28;20415;-50
2023/02/12 09:33:21;;;;;;;30.87;23.60;;;14.50;48.70;;;;;;5024183;28;20823;-50
2023/02/12 09:35:47;;;;;;;30.17;25.47;;;14.50;48.90;;;;;;5030963;28;20204;-53
2023/02/12 09:38:12;;;;;;;30.63;24.50;;;14.60;48.80;;;;;;5021336;28;20536;-52
2023/02/12 09:40:43;;;;;;;29.37;23.10;;;14.70;48.90;;;;;;5022564;28;20628;-50
2023/02/12 09:43:17;;;;;;;33.03;25.37;;;14.70;49.00;;;;;;5013496;28;20581;-48
2023/02/12 09:45:59;;;;;;;32.20;26.10;;;14.80;48.80;;;;;;5014186;28;21371;-50
2023/02/12 09:48:52;;;;;;;31.10;24.77;;;14.80;48.80;;;;;;5031112;28;20448;-49
2023/02/12 09:51:18;;;;;;;29.00;23.60;;;14.90;48.90;;;;;;5019014;28;20591;-50
2023/02/12 09:53:47;;;;;;;28.43;21.27;;;14.90;48.90;;;;;;5013471;28;20515;-49
2023/02/12 09:56:17;;;;;;;31.13;23.20;;;14.90;49.20;;;;;;5024788;28;20450;-49
2023/02/12 09:58:55;;;;;;;24.57;20.80;;;14.90;49.10;;;;;;5014047;28;20425;-48
2023/02/12 10:01:22;;;;;;;28.07;20.27;;;14.90;49.40;;;;;;5027910;28;20471;-48
2023/02/12 10:03:50;;;;;;;25.73;20.07;;;15.00;49.30;;;;;;5023354;28;20441;-48
2023/02/12 10:06:28;;;;;;;29.30;21.33;;;15.00;49.30;;;;;;5023058;28;20955;-51
2023/02/12 10:09:18;;;;;;;25.83;21.20;;;15.00;49.50;;;;;;5020750;28;20440;-49
2023/02/12 10:12:15;;;;;;;23.67;19.63;;;15.10;49.50;;;;;;5023207;28;20467;-48
2023/02/12 10:14:50;;;;;;;23.13;16.53;;;15.10;49.30;;;;;;5023549;28;20457;-48
2023/02/12 10:17:45;;;;;;;22.53;18.57;;;15.00;49.60;;;;;;5020917;28;20447;-50
2023/02/12 10:20:48;;;;;;;26.33;20.20;;;15.00;49.60;;;;;;5019616;28;21058;-52
2023/02/12 10:23:25;;;;;;;17.27;15.33;;;15.10;49.50;;;;;;5018082;28;20514;-49
2023/02/12 10:25:57;;;;;;;20.97;17.17;;;15.10;49.20;;;;;;5012433;28;20472;-49
2023/02/12 10:28:38;;;;;;;21.53;14.83;;;15.10;49.30;;;;;;5011311;28;20538;-48
2023/02/12 10:31:11;;;;;;;20.53;16.27;;;15.00;49.60;;;;;;5019017;28;20998;-49
2023/02/12 10:33:44;;;;;;;17.00;13.20;;;15.00;49.70;;;;;;5030367;28;20440;-49
2023/02/12 10:36:28;;;;;;;12.10;8.80;;;14.50;50.30;;;;;;5023392;28;20528;-48
2023/02/12 10:39:07;;;;;;;8.93;7.33;;;13.90;51.60;;;;;;5023626;28;20429;-49
2023/02/12 10:41:38;;;;;;;9.03;7.37;;;13.50;52.60;;;;;;5019477;28;20484;-50
2023/02/12 10:44:03;;;;;;;10.33;7.33;;;13.20;53.40;;;;;;5020214;28;20433;-49
2023/02/12 10:46:31;;;;;;;6.90;5.27;;;12.90;54.50;;;;;;5012485;28;20428;-49
2023/02/12 10:48:59;;;;;;;6.97;5.53;;;12.80;54.60;;;;;;5022822;28;20196;-48
2023/02/12 10:51:48;;;;;;;7.00;6.30;;;12.60;55.00;;;;;;5017472;28;20477;-48
2023/02/12 10:54:40;;;;;;;7.53;5.20;;;12.50;55.20;;;;;;5025002;28;20509;-48
2023/02/12 10:57:22;;;;;;;6.43;5.60;;;12.40;56.00;;;;;;5023301;28;20449;-48
2023/02/12 10:59:50;;;;;;;9.30;4.60;;;12.40;55.70;;;;;;5012160;28;21023;-48
2023/02/12 11:02:30;;;;;;;5.47;4.40;;;12.50;55.80;;;;;;5016380;28;20503;-50
2023/02/12 11:04:57;;;;;;;5.27;4.40;;;12.80;55.70;;;;;;5016246;28;20460;-49
2023/02/12 11:07:25;;;;;;;5.57;4.90;;;13.10;55.00;;;;;;5012056;28;20534;-50
2023/02/12 11:09:52;;;;;;;6.23;5.50;;;13.60;53.90;;;;;;5014214;28;20489;-49
2023/02/12 11:12:41;;;;;;;6.73;5.27;;;13.60;53.10;;;;;;5018885;28;20970;-51
2023/02/12 11:15:31;;;;;;;4.90;4.40;;;13.50;53.70;;;;;;5017300;28;20814;-48
2023/02/12 11:18:03;;;;;;;5.67;5.07;;;13.40;54.30;;;;;;5022461;28;20483;-49
2023/02/12 11:20:37;;;;;;;6.90;6.17;;;13.60;53.40;;;;;;5024395;28;20459;-49
2023/02/12 11:23:05;;;;;;;7.40;6.67;;;13.50;53.50;;;;;;5029060;28;20537;-50
2023/02/12 11:25:36;;;;;;;7.10;5.50;;;13.80;53.10;;;;;;5020057;28;21014;-49
2023/02/12 11:28:17;;;;;;;10.70;6.10;;;13.60;53.60;;;;;;5023804;28;20535;-52
2023/02/12 11:30:55;;;;;;;8.40;6.63;;;13.80;53.20;;;;;;5026985;28;20456;-49
2023/02/12 11:33:33;;;;;;;7.03;5.73;;;13.80;53.00;;;;;;5029452;28;20521;-50
2023/02/12 11:36:11;;;;;;;5.87;4.70;;;13.80;52.90;;;;;;5029298;28;20460;-49
2023/02/12 11:38:46;;;;;;;5.87;4.63;;;13.60;53.50;;;;;;5017866;28;20486;-49
2023/02/12 11:41:25;;;;;;;6.83;5.30;;;13.40;53.80;;;;;;5027952;28;20534;-49
2023/02/12 11:43:51;;;;;;;5.73;5.10;;;13.60;53.90;;;;;;5023380;28;20536;-51
2023/02/12 11:46:23;;;;;;;7.70;5.40;;;13.80;53.60;;;;;;5024965;28;20558;-50
2023/02/12 11:48:50;;;;;;;6.07;4.50;;;13.40;53.70;;;;;;5023296;28;20927;-49
2023/02/12 11:51:25;;;;;;;5.10;4.60;;;13.50;54.30;;;;;;5026626;28;20481;-49
2023/02/12 11:53:53;;;;;;;6.50;5.00;;;13.80;53.60;;;;;;5026095;28;20534;-48
2023/02/12 11:56:19;;;;;;;6.90;5.17;;;13.60;53.60;;;;;;5030162;28;20455;-48
2023/02/12 11:58:49;;;;;;;6.90;5.63;;;13.60;54.20;;;;;;5026515;28;20444;-49
2023/02/12 12:01:27;;;;;;;6.23;5.60;;;13.40;54.10;;;;;;5024038;28;21302;-49
2023/02/12 12:04:04;;;;;;;6.37;5.33;;;13.60;54.20;;;;;;5026767;28;20870;-50
2023/02/12 12:06:45;;;;;;;6.70;5.20;;;13.60;53.70;;;;;;5027118;28;20522;-49
2023/02/12 12:09:20;;;;;;;7.27;5.67;;;13.60;54.00;;;;;;5024921;28;20456;-48
2023/02/12 12:12:12;;;;;;;6.23;4.97;;;13.60;53.50;;;;;;5027462;28;20470;-51
2023/02/12 12:20:59;;;;;;;8.30;5.77;;;13.10;55.10;;;;;;5029501;28;20513;-50
2023/02/12 12:23:35;;;;;;;7.30;6.10;;;13.30;54.90;;;;;;5024154;28;20499;-51
2023/02/12 12:26:07;;;;;;;7.83;7.03;;;13.50;54.90;;;;;;5025674;28;20610;-52
2023/02/12 12:28:45;;;;;;;6.27;4.60;;;13.80;53.90;;;;;;5029874;28;20479;-48
2023/02/12 12:31:29;;;;;;;8.20;5.70;;;13.40;54.10;;;;;;5027561;28;20450;-49
2023/02/12 12:34:02;;;;;;;5.10;4.60;;;13.40;54.90;;;;;;5026765;28;20459;-48
2023/02/12 12:36:58;;;;;;;8.30;6.03;;;13.30;54.90;;;;;;5030153;28;20443;-49
2023/02/12 12:39:31;;;;;;;7.87;4.97;;;13.50;54.70;;;;;;5027181;28;20469;-50
2023/02/12 12:42:24;;;;;;;5.77;4.57;;;14.00;54.30;;;;;;5031418;28;20537;-48
2023/02/12 12:45:30;;;;;;;5.50;4.53;;;14.40;53.10;;;;;;5027403;28;20452;-51
2023/02/12 12:48:16;;;;;;;6.63;4.47;;;14.50;52.80;;;;;;5028291;28;20988;-51
2023/02/12 12:50:57;;;;;;;6.07;4.77;;;15.10;51.90;;;;;;5032823;28;20471;-49
2023/02/12 12:53:33;;;;;;;6.60;5.13;;;15.50;51.20;;;;;;5025042;28;20458;-50
2023/02/12 12:56:07;;;;;;;5.30;4.33;;;15.90;50.40;;;;;;5025209;28;20959;-51
2023/02/12 12:58:51;;;;;;;5.37;4.43;;;16.20;49.50;;;;;;5030077;28;20452;-51
2023/02/12 13:01:41;;;;;;;6.07;5.23;;;16.20;48.60;;;;;;5031956;28;20529;-49
2023/02/12 13:04:24;;;;;;;7.57;6.47;;;15.90;48.90;;;;;;5027506;28;20452;-49
2023/02/12 13:07:22;;;;;;;7.30;4.93;;;15.90;49.50;;;;;;5030094;28;20538;-50
2023/02/12 13:10:10;;;;;;;8.20;4.90;;;15.70;49.70;;;;;;5023827;28;21006;-49